sensor_id;sensor_type;location;lat;lon;timestamp;P1;durP1;ratioP1;P2;durP2;ratioP2
25657;SDS011;13517;59.320;18.042;2022-10-16T00:01:17;40.30;;;22.55;;
25657;SDS011;13517;59.320;18.042;2022-10-16T00:03:45;38.17;;;21.42;;
25657;SDS011;13517;59.320;18.042;2022-10-16T00:06:12;41.40;;;21.60;;
25657;SDS011;13517;59.320;18.042;2022-10-16T00:08:38;36.00;;;21.02;;
25657;SDS011;13517;59.320;18.042;2022-10-16T00:13:32;32.65;;;19.27;;
25657;SDS011;13517;59.320;18.042;2022-10-16T00:15:59;35.05;;;21.45;;
25657;SDS011;13517;59.320;18.042;2022-10-16T00:18:26;34.13;;;20.58;;
25657;SDS011;13517;59.320;18.042;2022-10-16T00:20:51;32.42;;;19.48;;
25657;SDS011;13517;59.320;18.042;2022-10-16T00:23:17;31.40;;;19.52;;
25657;SDS011;13517;59.320;18.042;2022-10-16T00:25:43;38.05;;;20.73;;
25657;SDS011;13517;59.320;18.042;2022-10-16T00:28:08;31.52;;;19.17;;
25657;SDS011;13517;59.320;18.042;2022-10-16T00:30:37;30.23;;;19.42;;
25657;SDS011;13517;59.320;18.042;2022-10-16T00:33:03;34.80;;;19.90;;
25657;SDS011;13517;59.320;18.042;2022-10-16T00:35:28;32.15;;;18.80;;
25657;SDS011;13517;59.320;18.042;2022-10-16T00:37:54;31.17;;;19.55;;
25657;SDS011;13517;59.320;18.042;2022-10-16T00:40:19;28.55;;;18.77;;
25657;SDS011;13517;59.320;18.042;2022-10-16T00:42:44;30.52;;;18.80;;
25657;SDS011;13517;59.320;18.042;2022-10-16T00:45:10;30.52;;;17.85;;
25657;SDS011;13517;59.320;18.042;2022-10-16T00:47:44;30.77;;;19.30;;
25657;SDS011;13517;59.320;18.042;2022-10-16T00:50:27;30.83;;;18.77;;
25657;SDS011;13517;59.320;18.042;2022-10-16T00:52:55;32.15;;;19.88;;
25657;SDS011;13517;59.320;18.042;2022-10-16T00:55:22;40.88;;;20.70;;
25657;SDS011;13517;59.320;18.042;2022-10-16T00:57:48;30.98;;;20.02;;
25657;SDS011;13517;59.320;18.042;2022-10-16T01:00:16;31.65;;;19.27;;
25657;SDS011;13517;59.320;18.042;2022-10-16T01:02:44;30.33;;;19.63;;
25657;SDS011;13517;59.320;18.042;2022-10-16T01:05:16;35.00;;;20.38;;
25657;SDS011;13517;59.320;18.042;2022-10-16T01:10:30;29.10;;;19.17;;
25657;SDS011;13517;59.320;18.042;2022-10-16T01:13:09;36.15;;;19.83;;
25657;SDS011;13517;59.320;18.042;2022-10-16T01:18:39;28.58;;;18.85;;
25657;SDS011;13517;59.320;18.042;2022-10-16T01:21:27;34.00;;;20.42;;
25657;SDS011;13517;59.320;18.042;2022-10-16T01:35:35;32.30;;;19.73;;
25657;SDS011;13517;59.320;18.042;2022-10-16T01:38:04;32.53;;;20.55;;
25657;SDS011;13517;59.320;18.042;2022-10-16T01:40:36;32.05;;;20.02;;
25657;SDS011;13517;59.320;18.042;2022-10-16T01:43:11;33.45;;;20.00;;
25657;SDS011;13517;59.320;18.042;2022-10-16T01:45:39;29.63;;;19.50;;
25657;SDS011;13517;59.320;18.042;2022-10-16T01:48:06;34.55;;;19.98;;
25657;SDS011;13517;59.320;18.042;2022-10-16T01:50:35;37.58;;;20.02;;
25657;SDS011;13517;59.320;18.042;2022-10-16T01:53:05;29.42;;;18.85;;
25657;SDS011;13517;59.320;18.042;2022-10-16T01:55:35;32.80;;;18.95;;
25657;SDS011;13517;59.320;18.042;2022-10-16T01:58:07;34.47;;;19.83;;
25657;SDS011;13517;59.320;18.042;2022-10-16T02:00:36;32.20;;;19.50;;
25657;SDS011;13517;59.320;18.042;2022-10-16T02:03:04;30.55;;;19.17;;
25657;SDS011;13517;59.320;18.042;2022-10-16T02:05:33;33.75;;;19.27;;
25657;SDS011;13517;59.320;18.042;2022-10-16T02:08:05;28.53;;;18.83;;
25657;SDS011;13517;59.320;18.042;2022-10-16T02:10:31;30.05;;;17.60;;
25657;SDS011;13517;59.320;18.042;2022-10-16T02:12:58;28.50;;;18.15;;
25657;SDS011;13517;59.320;18.042;2022-10-16T02:15:28;29.55;;;16.95;;
25657;SDS011;13517;59.320;18.042;2022-10-16T02:17:53;34.20;;;19.05;;
25657;SDS011;13517;59.320;18.042;2022-10-16T02:20:19;29.02;;;17.95;;
25657;SDS011;13517;59.320;18.042;2022-10-16T02:22:50;26.90;;;17.85;;
25657;SDS011;13517;59.320;18.042;2022-10-16T02:25:27;29.48;;;18.70;;
25657;SDS011;13517;59.320;18.042;2022-10-16T02:28:04;25.38;;;17.45;;
25657;SDS011;13517;59.320;18.042;2022-10-16T02:30:41;26.58;;;17.50;;
25657;SDS011;13517;59.320;18.042;2022-10-16T02:33:10;30.80;;;18.48;;
25657;SDS011;13517;59.320;18.042;2022-10-16T02:35:38;29.30;;;18.17;;
25657;SDS011;13517;59.320;18.042;2022-10-16T02:38:06;27.90;;;17.92;;
25657;SDS011;13517;59.320;18.042;2022-10-16T02:40:33;29.13;;;18.30;;
25657;SDS011;13517;59.320;18.042;2022-10-16T02:42:59;32.55;;;18.63;;
25657;SDS011;13517;59.320;18.042;2022-10-16T02:45:25;28.63;;;18.20;;
25657;SDS011;13517;59.320;18.042;2022-10-16T02:47:50;32.78;;;17.65;;
25657;SDS011;13517;59.320;18.042;2022-10-16T02:50:16;32.45;;;18.25;;
25657;SDS011;13517;59.320;18.042;2022-10-16T02:52:42;27.10;;;17.13;;
25657;SDS011;13517;59.320;18.042;2022-10-16T02:55:08;26.73;;;17.25;;
25657;SDS011;13517;59.320;18.042;2022-10-16T02:57:33;29.50;;;16.10;;
25657;SDS011;13517;59.320;18.042;2022-10-16T02:59:58;26.98;;;15.32;;
25657;SDS011;13517;59.320;18.042;2022-10-16T03:02:24;24.75;;;15.68;;
25657;SDS011;13517;59.320;18.042;2022-10-16T03:04:50;25.38;;;15.15;;
25657;SDS011;13517;59.320;18.042;2022-10-16T03:07:16;23.05;;;14.75;;
25657;SDS011;13517;59.320;18.042;2022-10-16T03:09:41;27.90;;;16.60;;
25657;SDS011;13517;59.320;18.042;2022-10-16T03:12:07;23.05;;;14.63;;
25657;SDS011;13517;59.320;18.042;2022-10-16T03:14:33;25.15;;;15.18;;
25657;SDS011;13517;59.320;18.042;2022-10-16T03:16:59;24.67;;;14.70;;
25657;SDS011;13517;59.320;18.042;2022-10-16T03:19:24;25.77;;;15.25;;
25657;SDS011;13517;59.320;18.042;2022-10-16T03:21:49;21.38;;;14.02;;
25657;SDS011;13517;59.320;18.042;2022-10-16T03:24:15;21.63;;;14.50;;
25657;SDS011;13517;59.320;18.042;2022-10-16T03:26:40;21.73;;;14.57;;
25657;SDS011;13517;59.320;18.042;2022-10-16T03:29:05;21.35;;;14.38;;
25657;SDS011;13517;59.320;18.042;2022-10-16T03:31:31;21.58;;;13.75;;
25657;SDS011;13517;59.320;18.042;2022-10-16T03:33:57;22.15;;;13.82;;
25657;SDS011;13517;59.320;18.042;2022-10-16T03:36:23;22.83;;;14.13;;
25657;SDS011;13517;59.320;18.042;2022-10-16T03:38:48;20.83;;;14.00;;
25657;SDS011;13517;59.320;18.042;2022-10-16T03:41:13;20.25;;;13.68;;
25657;SDS011;13517;59.320;18.042;2022-10-16T03:43:39;25.00;;;14.15;;
25657;SDS011;13517;59.320;18.042;2022-10-16T03:46:04;24.27;;;15.35;;
25657;SDS011;13517;59.320;18.042;2022-10-16T03:48:30;23.27;;;14.32;;
25657;SDS011;13517;59.320;18.042;2022-10-16T03:50:57;23.10;;;13.80;;
25657;SDS011;13517;59.320;18.042;2022-10-16T03:53:22;24.85;;;15.07;;
25657;SDS011;13517;59.320;18.042;2022-10-16T03:55:48;23.92;;;14.75;;
25657;SDS011;13517;59.320;18.042;2022-10-16T03:58:14;22.05;;;13.88;;
25657;SDS011;13517;59.320;18.042;2022-10-16T04:00:40;23.33;;;13.23;;
25657;SDS011;13517;59.320;18.042;2022-10-16T04:03:09;27.92;;;14.77;;
25657;SDS011;13517;59.320;18.042;2022-10-16T04:05:35;19.50;;;13.52;;
25657;SDS011;13517;59.320;18.042;2022-10-16T04:08:00;19.90;;;13.23;;
25657;SDS011;13517;59.320;18.042;2022-10-16T04:10:26;18.98;;;13.35;;
25657;SDS011;13517;59.320;18.042;2022-10-16T04:12:51;20.05;;;12.75;;
25657;SDS011;13517;59.320;18.042;2022-10-16T04:15:19;21.35;;;12.90;;
25657;SDS011;13517;59.320;18.042;2022-10-16T04:17:45;18.05;;;12.70;;
25657;SDS011;13517;59.320;18.042;2022-10-16T04:20:10;26.02;;;13.05;;
25657;SDS011;13517;59.320;18.042;2022-10-16T04:22:35;21.65;;;12.32;;
25657;SDS011;13517;59.320;18.042;2022-10-16T04:25:01;18.58;;;11.55;;
25657;SDS011;13517;59.320;18.042;2022-10-16T04:27:26;20.77;;;12.07;;
25657;SDS011;13517;59.320;18.042;2022-10-16T04:29:53;18.38;;;11.68;;
25657;SDS011;13517;59.320;18.042;2022-10-16T04:32:18;20.77;;;12.20;;
25657;SDS011;13517;59.320;18.042;2022-10-16T04:34:44;18.45;;;12.02;;
25657;SDS011;13517;59.320;18.042;2022-10-16T04:37:09;21.08;;;12.30;;
25657;SDS011;13517;59.320;18.042;2022-10-16T04:39:35;18.20;;;11.70;;
25657;SDS011;13517;59.320;18.042;2022-10-16T04:42:00;22.70;;;11.88;;
25657;SDS011;13517;59.320;18.042;2022-10-16T04:44:25;22.33;;;12.35;;
25657;SDS011;13517;59.320;18.042;2022-10-16T04:46:51;17.55;;;11.63;;
25657;SDS011;13517;59.320;18.042;2022-10-16T04:49:16;16.25;;;12.02;;
25657;SDS011;13517;59.320;18.042;2022-10-16T04:51:42;16.67;;;10.55;;
25657;SDS011;13517;59.320;18.042;2022-10-16T04:54:08;25.45;;;11.90;;
25657;SDS011;13517;59.320;18.042;2022-10-16T04:56:34;19.85;;;11.35;;
25657;SDS011;13517;59.320;18.042;2022-10-16T04:59:05;15.60;;;10.93;;
25657;SDS011;13517;59.320;18.042;2022-10-16T05:01:30;13.45;;;10.15;;
25657;SDS011;13517;59.320;18.042;2022-10-16T05:03:56;15.70;;;10.82;;
25657;SDS011;13517;59.320;18.042;2022-10-16T05:06:21;13.98;;;10.27;;
25657;SDS011;13517;59.320;18.042;2022-10-16T05:08:46;17.70;;;9.98;;
25657;SDS011;13517;59.320;18.042;2022-10-16T05:11:12;14.45;;;10.38;;
25657;SDS011;13517;59.320;18.042;2022-10-16T05:13:37;14.02;;;10.85;;
25657;SDS011;13517;59.320;18.042;2022-10-16T05:16:03;14.88;;;10.93;;
25657;SDS011;13517;59.320;18.042;2022-10-16T05:18:28;15.18;;;10.68;;
25657;SDS011;13517;59.320;18.042;2022-10-16T05:20:53;14.02;;;10.32;;
25657;SDS011;13517;59.320;18.042;2022-10-16T05:23:19;16.42;;;11.07;;
25657;SDS011;13517;59.320;18.042;2022-10-16T05:25:51;17.42;;;11.55;;
25657;SDS011;13517;59.320;18.042;2022-10-16T05:28:18;23.70;;;10.88;;
25657;SDS011;13517;59.320;18.042;2022-10-16T05:30:44;16.67;;;11.20;;
25657;SDS011;13517;59.320;18.042;2022-10-16T05:33:09;18.95;;;11.50;;
25657;SDS011;13517;59.320;18.042;2022-10-16T05:35:34;15.00;;;10.88;;
25657;SDS011;13517;59.320;18.042;2022-10-16T05:38:00;19.73;;;11.88;;
25657;SDS011;13517;59.320;18.042;2022-10-16T05:40:25;21.42;;;12.38;;
25657;SDS011;13517;59.320;18.042;2022-10-16T05:42:54;23.52;;;12.95;;
25657;SDS011;13517;59.320;18.042;2022-10-16T05:45:20;17.30;;;12.50;;
25657;SDS011;13517;59.320;18.042;2022-10-16T05:47:45;34.33;;;14.27;;
25657;SDS011;13517;59.320;18.042;2022-10-16T05:50:10;26.55;;;13.02;;
25657;SDS011;13517;59.320;18.042;2022-10-16T05:52:36;22.55;;;13.43;;
25657;SDS011;13517;59.320;18.042;2022-10-16T05:55:01;25.50;;;13.95;;
25657;SDS011;13517;59.320;18.042;2022-10-16T05:57:27;20.95;;;13.48;;
25657;SDS011;13517;59.320;18.042;2022-10-16T05:59:53;22.85;;;13.57;;
25657;SDS011;13517;59.320;18.042;2022-10-16T06:02:18;22.73;;;14.10;;
25657;SDS011;13517;59.320;18.042;2022-10-16T06:04:44;29.55;;;14.23;;
25657;SDS011;13517;59.320;18.042;2022-10-16T06:07:09;23.88;;;14.32;;
25657;SDS011;13517;59.320;18.042;2022-10-16T06:09:35;24.20;;;14.32;;
25657;SDS011;13517;59.320;18.042;2022-10-16T06:12:00;22.95;;;15.35;;
25657;SDS011;13517;59.320;18.042;2022-10-16T06:14:26;26.63;;;15.35;;
25657;SDS011;13517;59.320;18.042;2022-10-16T06:16:51;28.38;;;16.20;;
25657;SDS011;13517;59.320;18.042;2022-10-16T06:19:16;31.55;;;16.95;;
25657;SDS011;13517;59.320;18.042;2022-10-16T06:21:43;28.20;;;17.58;;
25657;SDS011;13517;59.320;18.042;2022-10-16T06:24:09;30.98;;;17.77;;
25657;SDS011;13517;59.320;18.042;2022-10-16T06:26:35;35.78;;;19.10;;
25657;SDS011;13517;59.320;18.042;2022-10-16T06:29:00;29.83;;;18.52;;
25657;SDS011;13517;59.320;18.042;2022-10-16T06:31:27;33.20;;;18.58;;
25657;SDS011;13517;59.320;18.042;2022-10-16T06:33:55;29.65;;;18.92;;
25657;SDS011;13517;59.320;18.042;2022-10-16T06:36:21;35.47;;;19.55;;
25657;SDS011;13517;59.320;18.042;2022-10-16T06:38:47;34.55;;;18.77;;
25657;SDS011;13517;59.320;18.042;2022-10-16T06:41:14;32.35;;;19.50;;
25657;SDS011;13517;59.320;18.042;2022-10-16T06:43:41;33.78;;;19.77;;
25657;SDS011;13517;59.320;18.042;2022-10-16T06:46:09;29.08;;;18.75;;
25657;SDS011;13517;59.320;18.042;2022-10-16T06:48:35;36.00;;;21.05;;
25657;SDS011;13517;59.320;18.042;2022-10-16T06:51:05;33.35;;;19.73;;
25657;SDS011;13517;59.320;18.042;2022-10-16T06:53:39;32.70;;;21.23;;
25657;SDS011;13517;59.320;18.042;2022-10-16T06:56:10;35.10;;;19.45;;
25657;SDS011;13517;59.320;18.042;2022-10-16T06:58:41;37.10;;;20.65;;
25657;SDS011;13517;59.320;18.042;2022-10-16T07:01:07;37.83;;;20.65;;
25657;SDS011;13517;59.320;18.042;2022-10-16T07:03:32;33.58;;;19.40;;
25657;SDS011;13517;59.320;18.042;2022-10-16T07:06:01;32.95;;;20.00;;
25657;SDS011;13517;59.320;18.042;2022-10-16T07:08:30;36.13;;;20.13;;
25657;SDS011;13517;59.320;18.042;2022-10-16T07:11:00;31.70;;;19.63;;
25657;SDS011;13517;59.320;18.042;2022-10-16T07:13:28;33.40;;;19.42;;
25657;SDS011;13517;59.320;18.042;2022-10-16T07:15:53;28.88;;;18.55;;
25657;SDS011;13517;59.320;18.042;2022-10-16T07:18:18;31.20;;;18.20;;
25657;SDS011;13517;59.320;18.042;2022-10-16T07:20:44;26.65;;;16.20;;
25657;SDS011;13517;59.320;18.042;2022-10-16T07:23:09;31.20;;;17.35;;
25657;SDS011;13517;59.320;18.042;2022-10-16T07:25:35;25.23;;;17.52;;
25657;SDS011;13517;59.320;18.042;2022-10-16T07:28:00;28.98;;;17.08;;
25657;SDS011;13517;59.320;18.042;2022-10-16T07:30:25;27.50;;;15.82;;
25657;SDS011;13517;59.320;18.042;2022-10-16T07:32:51;23.30;;;15.50;;
25657;SDS011;13517;59.320;18.042;2022-10-16T07:35:16;24.45;;;14.73;;
25657;SDS011;13517;59.320;18.042;2022-10-16T07:37:45;19.67;;;13.98;;
25657;SDS011;13517;59.320;18.042;2022-10-16T07:40:11;19.17;;;13.25;;
25657;SDS011;13517;59.320;18.042;2022-10-16T07:42:36;18.10;;;12.48;;
25657;SDS011;13517;59.320;18.042;2022-10-16T07:45:02;17.10;;;12.55;;
25657;SDS011;13517;59.320;18.042;2022-10-16T07:47:27;18.83;;;12.05;;
25657;SDS011;13517;59.320;18.042;2022-10-16T07:49:53;15.68;;;11.13;;
25657;SDS011;13517;59.320;18.042;2022-10-16T07:52:18;15.50;;;10.57;;
25657;SDS011;13517;59.320;18.042;2022-10-16T07:54:44;19.13;;;10.43;;
25657;SDS011;13517;59.320;18.042;2022-10-16T07:57:09;16.27;;;9.43;;
25657;SDS011;13517;59.320;18.042;2022-10-16T07:59:35;16.25;;;10.15;;
25657;SDS011;13517;59.320;18.042;2022-10-16T08:02:00;16.17;;;10.05;;
25657;SDS011;13517;59.320;18.042;2022-10-16T08:04:25;14.00;;;9.45;;
25657;SDS011;13517;59.320;18.042;2022-10-16T08:06:51;12.68;;;8.93;;
25657;SDS011;13517;59.320;18.042;2022-10-16T08:09:16;11.48;;;8.93;;
25657;SDS011;13517;59.320;18.042;2022-10-16T08:11:42;11.18;;;8.07;;
25657;SDS011;13517;59.320;18.042;2022-10-16T08:14:07;11.90;;;7.97;;
25657;SDS011;13517;59.320;18.042;2022-10-16T08:16:32;12.23;;;8.15;;
25657;SDS011;13517;59.320;18.042;2022-10-16T08:18:58;10.30;;;7.80;;
25657;SDS011;13517;59.320;18.042;2022-10-16T08:21:23;9.63;;;7.25;;
25657;SDS011;13517;59.320;18.042;2022-10-16T08:23:49;11.80;;;8.23;;
25657;SDS011;13517;59.320;18.042;2022-10-16T08:26:15;15.75;;;7.78;;
25657;SDS011;13517;59.320;18.042;2022-10-16T08:28:40;15.98;;;8.10;;
25657;SDS011;13517;59.320;18.042;2022-10-16T08:31:10;18.70;;;7.72;;
25657;SDS011;13517;59.320;18.042;2022-10-16T08:33:40;11.18;;;7.47;;
25657;SDS011;13517;59.320;18.042;2022-10-16T08:36:07;13.93;;;8.02;;
25657;SDS011;13517;59.320;18.042;2022-10-16T08:38:33;10.90;;;7.63;;
25657;SDS011;13517;59.320;18.042;2022-10-16T08:44:16;15.80;;;7.60;;
25657;SDS011;13517;59.320;18.042;2022-10-16T08:46:58;13.02;;;7.22;;
25657;SDS011;13517;59.320;18.042;2022-10-16T08:49:35;10.32;;;6.78;;
25657;SDS011;13517;59.320;18.042;2022-10-16T08:52:02;9.57;;;6.93;;
25657;SDS011;13517;59.320;18.042;2022-10-16T08:57:19;10.00;;;6.78;;
25657;SDS011;13517;59.320;18.042;2022-10-16T08:59:46;11.57;;;6.90;;
25657;SDS011;13517;59.320;18.042;2022-10-16T09:02:26;12.85;;;6.47;;
25657;SDS011;13517;59.320;18.042;2022-10-16T09:10:42;12.40;;;6.72;;
25657;SDS011;13517;59.320;18.042;2022-10-16T09:16:18;12.63;;;5.80;;
25657;SDS011;13517;59.320;18.042;2022-10-16T09:21:20;9.35;;;6.18;;
25657;SDS011;13517;59.320;18.042;2022-10-16T09:23:48;13.82;;;5.95;;
25657;SDS011;13517;59.320;18.042;2022-10-16T09:26:14;11.68;;;6.15;;
25657;SDS011;13517;59.320;18.042;2022-10-16T09:28:41;11.32;;;5.43;;
25657;SDS011;13517;59.320;18.042;2022-10-16T09:31:28;12.00;;;5.40;;
25657;SDS011;13517;59.320;18.042;2022-10-16T09:33:55;12.10;;;4.20;;
25657;SDS011;13517;59.320;18.042;2022-10-16T09:36:25;10.85;;;5.18;;
25657;SDS011;13517;59.320;18.042;2022-10-16T09:39:01;7.28;;;4.32;;
25657;SDS011;13517;59.320;18.042;2022-10-16T09:41:33;10.48;;;4.78;;
25657;SDS011;13517;59.320;18.042;2022-10-16T09:44:00;10.48;;;4.80;;
25657;SDS011;13517;59.320;18.042;2022-10-16T09:46:28;10.88;;;4.90;;
25657;SDS011;13517;59.320;18.042;2022-10-16T09:48:59;10.82;;;4.60;;
25657;SDS011;13517;59.320;18.042;2022-10-16T09:51:29;8.73;;;5.05;;
25657;SDS011;13517;59.320;18.042;2022-10-16T09:53:58;7.68;;;4.47;;
25657;SDS011;13517;59.320;18.042;2022-10-16T09:56:26;11.23;;;4.75;;
25657;SDS011;13517;59.320;18.042;2022-10-16T09:58:58;10.45;;;4.90;;
25657;SDS011;13517;59.320;18.042;2022-10-16T10:01:45;7.45;;;4.80;;
25657;SDS011;13517;59.320;18.042;2022-10-16T10:04:13;8.88;;;4.13;;
25657;SDS011;13517;59.320;18.042;2022-10-16T10:06:43;15.32;;;4.60;;
25657;SDS011;13517;59.320;18.042;2022-10-16T10:09:15;8.10;;;4.32;;
25657;SDS011;13517;59.320;18.042;2022-10-16T10:16:47;8.27;;;4.43;;
25657;SDS011;13517;59.320;18.042;2022-10-16T10:19:17;11.05;;;5.20;;
25657;SDS011;13517;59.320;18.042;2022-10-16T10:21:44;9.70;;;4.50;;
25657;SDS011;13517;59.320;18.042;2022-10-16T10:24:11;11.35;;;4.40;;
25657;SDS011;13517;59.320;18.042;2022-10-16T10:26:38;7.57;;;4.07;;
25657;SDS011;13517;59.320;18.042;2022-10-16T10:29:10;10.98;;;4.40;;
25657;SDS011;13517;59.320;18.042;2022-10-16T10:35:05;7.57;;;4.28;;
25657;SDS011;13517;59.320;18.042;2022-10-16T10:37:51;8.35;;;4.40;;
25657;SDS011;13517;59.320;18.042;2022-10-16T10:48:19;7.40;;;3.97;;
25657;SDS011;13517;59.320;18.042;2022-10-16T10:51:13;9.38;;;3.88;;
25657;SDS011;13517;59.320;18.042;2022-10-16T10:54:06;4.95;;;3.20;;
25657;SDS011;13517;59.320;18.042;2022-10-16T10:56:47;11.63;;;3.90;;
25657;SDS011;13517;59.320;18.042;2022-10-16T11:02:00;10.07;;;3.33;;
25657;SDS011;13517;59.320;18.042;2022-10-16T11:07:48;8.13;;;3.83;;
25657;SDS011;13517;59.320;18.042;2022-10-16T11:10:24;11.02;;;4.03;;
25657;SDS011;13517;59.320;18.042;2022-10-16T11:13:10;15.80;;;4.15;;
25657;SDS011;13517;59.320;18.042;2022-10-16T11:15:45;14.60;;;4.40;;
25657;SDS011;13517;59.320;18.042;2022-10-16T11:18:19;8.30;;;4.30;;
25657;SDS011;13517;59.320;18.042;2022-10-16T11:21:12;8.93;;;3.92;;
25657;SDS011;13517;59.320;18.042;2022-10-16T11:26:20;9.73;;;3.63;;
25657;SDS011;13517;59.320;18.042;2022-10-16T11:28:49;9.70;;;3.80;;
25657;SDS011;13517;59.320;18.042;2022-10-16T11:36:42;8.02;;;3.60;;
25657;SDS011;13517;59.320;18.042;2022-10-16T11:39:22;12.63;;;3.75;;
25657;SDS011;13517;59.320;18.042;2022-10-16T11:41:55;9.73;;;3.65;;
25657;SDS011;13517;59.320;18.042;2022-10-16T11:55:37;12.43;;;3.25;;
25657;SDS011;13517;59.320;18.042;2022-10-16T11:58:13;6.10;;;3.15;;
25657;SDS011;13517;59.320;18.042;2022-10-16T12:00:47;12.50;;;4.03;;
25657;SDS011;13517;59.320;18.042;2022-10-16T12:09:09;9.55;;;3.47;;
25657;SDS011;13517;59.320;18.042;2022-10-16T12:11:40;6.88;;;3.20;;
25657;SDS011;13517;59.320;18.042;2022-10-16T12:14:58;9.82;;;4.35;;
25657;SDS011;13517;59.320;18.042;2022-10-16T12:19:44;10.35;;;3.63;;
25657;SDS011;13517;59.320;18.042;2022-10-16T12:22:28;8.05;;;4.25;;
25657;SDS011;13517;59.320;18.042;2022-10-16T12:24:55;11.38;;;4.18;;
25657;SDS011;13517;59.320;18.042;2022-10-16T12:30:00;10.65;;;4.38;;
25657;SDS011;13517;59.320;18.042;2022-10-16T12:32:34;10.32;;;3.90;;
25657;SDS011;13517;59.320;18.042;2022-10-16T12:35:02;7.82;;;3.95;;
25657;SDS011;13517;59.320;18.042;2022-10-16T12:37:31;13.02;;;4.68;;
25657;SDS011;13517;59.320;18.042;2022-10-16T12:39:59;10.90;;;4.20;;
25657;SDS011;13517;59.320;18.042;2022-10-16T12:42:36;12.00;;;4.20;;
25657;SDS011;13517;59.320;18.042;2022-10-16T12:45:13;11.32;;;4.05;;
25657;SDS011;13517;59.320;18.042;2022-10-16T12:47:58;7.38;;;3.85;;
25657;SDS011;13517;59.320;18.042;2022-10-16T12:50:26;6.68;;;3.60;;
25657;SDS011;13517;59.320;18.042;2022-10-16T12:52:55;7.47;;;3.47;;
25657;SDS011;13517;59.320;18.042;2022-10-16T12:55:21;7.90;;;3.80;;
25657;SDS011;13517;59.320;18.042;2022-10-16T13:00:59;8.63;;;3.28;;
25657;SDS011;13517;59.320;18.042;2022-10-16T13:16:56;6.88;;;3.70;;
25657;SDS011;13517;59.320;18.042;2022-10-16T13:19:31;10.40;;;4.22;;
25657;SDS011;13517;59.320;18.042;2022-10-16T13:28:05;11.07;;;4.38;;
25657;SDS011;13517;59.320;18.042;2022-10-16T13:30:51;13.77;;;3.97;;
25657;SDS011;13517;59.320;18.042;2022-10-16T13:33:20;8.18;;;3.83;;
25657;SDS011;13517;59.320;18.042;2022-10-16T13:35:55;5.53;;;3.33;;
25657;SDS011;13517;59.320;18.042;2022-10-16T13:38:23;5.80;;;3.08;;
25657;SDS011;13517;59.320;18.042;2022-10-16T13:40:55;9.50;;;3.70;;
25657;SDS011;13517;59.320;18.042;2022-10-16T13:43:24;8.80;;;3.65;;
25657;SDS011;13517;59.320;18.042;2022-10-16T13:45:53;6.32;;;3.55;;
25657;SDS011;13517;59.320;18.042;2022-10-16T13:48:30;5.47;;;3.22;;
25657;SDS011;13517;59.320;18.042;2022-10-16T13:51:00;9.27;;;3.38;;
25657;SDS011;13517;59.320;18.042;2022-10-16T13:53:29;10.45;;;3.83;;
25657;SDS011;13517;59.320;18.042;2022-10-16T13:55:56;7.45;;;3.20;;
25657;SDS011;13517;59.320;18.042;2022-10-16T13:58:21;8.38;;;3.45;;
25657;SDS011;13517;59.320;18.042;2022-10-16T14:01:22;10.73;;;3.65;;
25657;SDS011;13517;59.320;18.042;2022-10-16T14:03:43;8.45;;;2.88;;
25657;SDS011;13517;59.320;18.042;2022-10-16T14:06:17;14.38;;;3.10;;
25657;SDS011;13517;59.320;18.042;2022-10-16T14:08:48;11.25;;;3.70;;
25657;SDS011;13517;59.320;18.042;2022-10-16T14:11:24;12.30;;;3.42;;
25657;SDS011;13517;59.320;18.042;2022-10-16T14:13:50;6.70;;;3.22;;
25657;SDS011;13517;59.320;18.042;2022-10-16T14:16:21;6.32;;;2.92;;
25657;SDS011;13517;59.320;18.042;2022-10-16T14:18:59;10.07;;;3.22;;
25657;SDS011;13517;59.320;18.042;2022-10-16T14:21:25;15.75;;;3.45;;
25657;SDS011;13517;59.320;18.042;2022-10-16T14:23:51;7.03;;;3.20;;
25657;SDS011;13517;59.320;18.042;2022-10-16T14:26:19;7.70;;;3.95;;
25657;SDS011;13517;59.320;18.042;2022-10-16T14:28:47;10.55;;;3.15;;
25657;SDS011;13517;59.320;18.042;2022-10-16T14:31:22;11.23;;;2.97;;
25657;SDS011;13517;59.320;18.042;2022-10-16T14:33:53;8.55;;;3.30;;
25657;SDS011;13517;59.320;18.042;2022-10-16T14:36:19;7.85;;;3.72;;
25657;SDS011;13517;59.320;18.042;2022-10-16T14:41:46;6.25;;;2.95;;
25657;SDS011;13517;59.320;18.042;2022-10-16T14:44:13;7.60;;;2.70;;
25657;SDS011;13517;59.320;18.042;2022-10-16T14:46:40;8.88;;;3.28;;
25657;SDS011;13517;59.320;18.042;2022-10-16T14:51:39;8.52;;;3.55;;
25657;SDS011;13517;59.320;18.042;2022-10-16T14:54:09;10.43;;;3.37;;
25657;SDS011;13517;59.320;18.042;2022-10-16T14:59:12;16.40;;;3.70;;
25657;SDS011;13517;59.320;18.042;2022-10-16T15:01:49;10.73;;;3.53;;
25657;SDS011;13517;59.320;18.042;2022-10-16T15:04:15;8.55;;;3.95;;
25657;SDS011;13517;59.320;18.042;2022-10-16T15:06:41;9.57;;;3.35;;
25657;SDS011;13517;59.320;18.042;2022-10-16T15:09:07;9.15;;;2.95;;
25657;SDS011;13517;59.320;18.042;2022-10-16T15:11:32;11.30;;;3.25;;
25657;SDS011;13517;59.320;18.042;2022-10-16T15:13:58;8.77;;;3.53;;
25657;SDS011;13517;59.320;18.042;2022-10-16T15:16:23;13.65;;;5.25;;
25657;SDS011;13517;59.320;18.042;2022-10-16T15:18:49;16.25;;;4.30;;
25657;SDS011;13517;59.320;18.042;2022-10-16T15:21:28;9.90;;;3.50;;
25657;SDS011;13517;59.320;18.042;2022-10-16T15:23:55;12.27;;;4.28;;
25657;SDS011;13517;59.320;18.042;2022-10-16T15:26:22;10.13;;;3.70;;
25657;SDS011;13517;59.320;18.042;2022-10-16T15:28:49;8.52;;;2.03;;
25657;SDS011;13517;59.320;18.042;2022-10-16T15:31:15;8.63;;;1.77;;
25657;SDS011;13517;59.320;18.042;2022-10-16T15:33:40;2.88;;;1.42;;
25657;SDS011;13517;59.320;18.042;2022-10-16T15:36:06;3.67;;;1.27;;
25657;SDS011;13517;59.320;18.042;2022-10-16T15:38:32;7.18;;;1.35;;
25657;SDS011;13517;59.320;18.042;2022-10-16T15:40:58;7.60;;;1.55;;
25657;SDS011;13517;59.320;18.042;2022-10-16T15:43:23;4.53;;;1.83;;
25657;SDS011;13517;59.320;18.042;2022-10-16T15:45:58;3.55;;;1.40;;
25657;SDS011;13517;59.320;18.042;2022-10-16T15:48:28;7.90;;;1.98;;
25657;SDS011;13517;59.320;18.042;2022-10-16T15:50:54;4.03;;;1.23;;
25657;SDS011;13517;59.320;18.042;2022-10-16T15:53:20;2.53;;;1.58;;
25657;SDS011;13517;59.320;18.042;2022-10-16T15:55:45;6.15;;;1.60;;
25657;SDS011;13517;59.320;18.042;2022-10-16T15:58:11;3.35;;;1.60;;
25657;SDS011;13517;59.320;18.042;2022-10-16T16:00:36;5.05;;;1.95;;
25657;SDS011;13517;59.320;18.042;2022-10-16T16:03:02;8.45;;;2.17;;
25657;SDS011;13517;59.320;18.042;2022-10-16T16:05:28;5.25;;;2.53;;
25657;SDS011;13517;59.320;18.042;2022-10-16T16:07:53;5.95;;;2.30;;
25657;SDS011;13517;59.320;18.042;2022-10-16T16:10:18;7.40;;;2.20;;
25657;SDS011;13517;59.320;18.042;2022-10-16T16:12:46;5.53;;;1.95;;
25657;SDS011;13517;59.320;18.042;2022-10-16T16:15:16;6.03;;;2.33;;
25657;SDS011;13517;59.320;18.042;2022-10-16T16:17:42;9.93;;;3.72;;
25657;SDS011;13517;59.320;18.042;2022-10-16T16:20:09;8.80;;;2.85;;
25657;SDS011;13517;59.320;18.042;2022-10-16T16:22:35;8.05;;;2.47;;
25657;SDS011;13517;59.320;18.042;2022-10-16T16:25:00;10.95;;;3.28;;
25657;SDS011;13517;59.320;18.042;2022-10-16T16:27:26;11.30;;;3.90;;